createdAt,value
2023-03-24T00:01:01.916Z,9.40
2023-03-24T00:03:32.259Z,9.50
2023-03-24T00:06:02.731Z,9.70
2023-03-24T00:08:31.707Z,9.50
2023-03-24T00:11:01.531Z,9.50
2023-03-24T00:13:30.747Z,9.40
2023-03-24T00:15:59.550Z,9.30
2023-03-24T00:18:27.601Z,9.20
2023-03-24T00:20:58.737Z,9.20
2023-03-24T00:23:27.934Z,9.40
2023-03-24T00:26:03.646Z,9.50
2023-03-24T00:28:33.215Z,9.70
2023-03-24T00:31:02.056Z,9.80
2023-03-24T00:33:31.679Z,9.80
2023-03-24T00:36:01.952Z,9.80
2023-03-24T00:38:30.358Z,9.80
2023-03-24T00:40:58.904Z,9.90
2023-03-24T00:43:27.161Z,10.00
2023-03-24T00:46:02.099Z,10.00
2023-03-24T00:48:30.955Z,9.90
2023-03-24T00:51:03.764Z,9.90
2023-03-24T00:53:31.870Z,9.90
2023-03-24T00:56:00.226Z,9.90
2023-03-24T00:58:29.740Z,9.90
2023-03-24T01:00:59.159Z,9.90
2023-03-24T01:03:28.112Z,9.90
2023-03-24T01:06:02.356Z,9.80
2023-03-24T01:08:32.701Z,9.70
2023-03-24T01:11:01.657Z,9.70
2023-03-24T01:13:30.810Z,9.60
2023-03-24T01:15:59.363Z,9.60
2023-03-24T01:18:27.746Z,9.50
2023-03-24T01:20:56.186Z,9.40
2023-03-24T01:23:26.809Z,9.40
2023-03-24T01:25:56.222Z,9.30
2023-03-24T01:28:27.174Z,9.20
2023-03-24T01:30:55.876Z,9.40
2023-03-24T01:33:24.403Z,9.50
2023-03-24T01:35:52.525Z,9.50
2023-03-24T01:38:20.817Z,9.50
2023-03-24T01:40:49.169Z,9.60
2023-03-24T01:43:23.225Z,9.60
2023-03-24T01:46:06.687Z,9.60
2023-03-24T01:48:38.824Z,9.60
2023-03-24T01:51:11.154Z,9.40
2023-03-24T01:53:42.690Z,9.20
2023-03-24T01:56:12.682Z,9.20
2023-03-24T01:58:46.798Z,9.30
2023-03-24T02:01:15.890Z,9.30
2023-03-24T02:03:44.629Z,9.50
2023-03-24T02:06:14.706Z,9.60
2023-03-24T02:08:48.222Z,9.50
2023-03-24T02:11:16.464Z,9.40
2023-03-24T02:13:45.966Z,9.50
2023-03-24T02:16:31.851Z,9.60
2023-03-24T02:19:26.545Z,9.60
2023-03-24T02:22:29.664Z,9.60
2023-03-24T02:25:39.489Z,9.70
2023-03-24T02:28:25.176Z,9.80
2023-03-24T02:31:24.729Z,9.70
2023-03-24T02:34:28.407Z,9.40
2023-03-24T02:37:28.352Z,9.20
2023-03-24T02:40:06.953Z,9.20
2023-03-24T02:42:45.219Z,9.20
2023-03-24T02:45:23.852Z,9.40
2023-03-24T02:48:02.272Z,9.40
2023-03-24T02:50:36.436Z,9.30
2023-03-24T02:53:12.705Z,9.30
2023-03-24T02:55:47.533Z,9.30
2023-03-24T02:58:20.242Z,9.30
2023-03-24T03:00:53.467Z,9.30
2023-03-24T03:03:28.377Z,9.40
2023-03-24T03:06:00.400Z,9.40
2023-03-24T03:08:32.393Z,9.40
2023-03-24T03:11:04.510Z,9.40
2023-03-24T03:13:37.630Z,9.50
2023-03-24T03:16:09.534Z,9.50
2023-03-24T03:18:40.993Z,9.50
2023-03-24T03:21:13.929Z,9.60
2023-03-24T03:23:46.675Z,9.60
2023-03-24T03:26:19.673Z,9.50
2023-03-24T03:28:57.694Z,9.40
2023-03-24T03:31:30.919Z,9.10
2023-03-24T03:34:06.075Z,8.90
2023-03-24T03:36:39.369Z,8.80
2023-03-24T03:39:13.902Z,8.80
2023-03-24T03:41:44.332Z,8.80
2023-03-24T03:44:12.712Z,8.70
2023-03-24T03:46:41.028Z,8.70
2023-03-24T03:49:10.158Z,8.60
2023-03-24T03:51:38.528Z,8.80
2023-03-24T03:54:09.685Z,8.80
2023-03-24T03:56:39.372Z,8.80
2023-03-24T03:59:10.910Z,8.80
2023-03-24T04:01:41.912Z,8.70
2023-03-24T04:04:33.209Z,8.50
2023-03-24T04:07:11.145Z,8.60
2023-03-24T04:09:47.725Z,8.70
2023-03-24T04:12:29.912Z,8.80
2023-03-24T04:15:13.551Z,8.70
2023-03-24T04:17:53.446Z,8.80
2023-03-24T04:20:25.965Z,8.80
2023-03-24T04:23:04.150Z,8.70
2023-03-24T04:25:45.004Z,8.70
2023-03-24T04:28:21.867Z,8.80
2023-03-24T04:30:56.004Z,8.40
2023-03-24T04:33:30.306Z,8.30
2023-03-24T04:36:06.498Z,8.20
2023-03-24T04:38:38.339Z,8.00
2023-03-24T04:41:07.263Z,8.20
2023-03-24T04:43:37.387Z,8.20
2023-03-24T04:46:09.467Z,8.00
2023-03-24T04:48:37.742Z,8.00
2023-03-24T04:51:05.998Z,7.90
2023-03-24T04:53:34.010Z,8.00
2023-03-24T04:56:09.372Z,8.10
2023-03-24T04:58:37.450Z,8.20
2023-03-24T05:01:09.248Z,8.10
2023-03-24T05:03:38.048Z,8.00
2023-03-24T05:06:07.636Z,8.00
2023-03-24T05:08:35.605Z,8.20
2023-03-24T05:11:03.487Z,8.10
2023-03-24T05:13:31.473Z,8.30
2023-03-24T05:15:59.497Z,8.40
2023-03-24T05:18:28.851Z,8.50
2023-03-24T05:20:57.079Z,8.40
2023-03-24T05:23:25.219Z,8.40
2023-03-24T05:25:53.218Z,8.50
2023-03-24T05:28:21.208Z,8.50
2023-03-24T05:30:49.221Z,8.30
2023-03-24T05:33:17.294Z,8.30
2023-03-24T05:35:46.997Z,8.00
2023-03-24T05:38:15.230Z,7.90
2023-03-24T05:40:43.284Z,7.60
2023-03-24T05:43:12.292Z,7.70
2023-03-24T05:45:40.331Z,7.90
2023-03-24T05:48:08.350Z,7.90
2023-03-24T05:50:36.291Z,8.00
2023-03-24T05:53:05.751Z,8.10
2023-03-24T05:55:33.626Z,8.10
2023-03-24T05:58:03.817Z,8.20
2023-03-24T06:00:33.349Z,8.40
2023-03-24T06:03:04.189Z,8.30
2023-03-24T06:05:34.154Z,8.40
2023-03-24T06:08:02.047Z,8.50
2023-03-24T06:10:31.323Z,8.60
2023-03-24T06:12:59.337Z,8.80
2023-03-24T06:15:28.546Z,8.70
2023-03-24T06:17:56.739Z,8.80
2023-03-24T06:20:25.894Z,8.70
2023-03-24T06:22:59.028Z,8.80
2023-03-24T06:25:28.691Z,8.80
2023-03-24T06:28:03.910Z,8.90
2023-03-24T06:30:32.023Z,9.10
2023-03-24T06:33:00.071Z,9.10
2023-03-24T06:35:28.176Z,9.20
2023-03-24T06:37:56.529Z,9.30
2023-03-24T06:40:24.602Z,9.40
2023-03-24T06:42:52.529Z,9.50
2023-03-24T06:45:21.901Z,9.20
2023-03-24T06:47:49.999Z,9.40
2023-03-24T06:50:18.296Z,9.50
2023-03-24T06:52:46.290Z,9.60
2023-03-24T06:55:14.399Z,9.40
2023-03-24T06:57:42.337Z,9.40
2023-03-24T07:00:11.536Z,9.50
2023-03-24T07:02:42.792Z,9.80
2023-03-24T07:05:11.040Z,9.90
2023-03-24T07:08:19.708Z,9.80
2023-03-24T07:10:29.590Z,10.00
2023-03-24T07:12:57.768Z,9.90
2023-03-24T07:15:25.706Z,9.80
2023-03-24T07:17:54.999Z,10.10
2023-03-24T07:20:23.219Z,10.10
2023-03-24T07:22:51.280Z,10.30
2023-03-24T07:25:21.172Z,10.30
2023-03-24T07:27:49.489Z,10.40
2023-03-24T07:30:20.567Z,10.60
2023-03-24T07:32:56.618Z,10.80
2023-03-24T07:35:24.652Z,10.80
2023-03-24T07:37:52.630Z,11.00
2023-03-24T07:40:20.637Z,11.20
2023-03-24T07:42:48.761Z,11.70
2023-03-24T07:45:17.101Z,12.00
2023-03-24T07:47:47.151Z,12.20
2023-03-24T07:50:16.555Z,12.30
2023-03-24T07:52:49.393Z,12.60
2023-03-24T07:55:17.571Z,12.70
2023-03-24T07:57:49.833Z,12.90
2023-03-24T08:00:19.962Z,13.20
2023-03-24T08:02:49.706Z,13.60
2023-03-24T08:05:20.021Z,13.90
2023-03-24T08:07:53.545Z,14.20
2023-03-24T08:10:23.321Z,14.50
2023-03-24T08:12:51.419Z,14.70
2023-03-24T08:15:19.751Z,14.70
2023-03-24T08:17:49.155Z,14.40
2023-03-24T08:20:21.195Z,14.50
2023-03-24T08:22:53.991Z,14.50
2023-03-24T08:25:24.060Z,14.90
2023-03-24T08:27:52.410Z,14.90
2023-03-24T08:30:23.356Z,14.60
2023-03-24T08:32:52.776Z,14.60
2023-03-24T08:35:24.642Z,15.10
2023-03-24T08:37:52.782Z,15.50
2023-03-24T08:40:24.194Z,15.50
2023-03-24T08:42:54.895Z,15.30
2023-03-24T08:45:24.694Z,15.50
2023-03-24T08:47:53.980Z,15.50
2023-03-24T08:50:25.744Z,15.70
2023-03-24T08:52:55.149Z,15.80
2023-03-24T08:55:24.424Z,15.80
2023-03-24T08:57:52.713Z,15.70
2023-03-24T09:00:22.578Z,15.80
2023-03-24T09:02:53.856Z,15.80
2023-03-24T09:05:33.318Z,15.90
2023-03-24T09:08:09.318Z,15.80
2023-03-24T09:10:37.410Z,15.60
2023-03-24T09:13:05.406Z,15.70
2023-03-24T09:15:33.960Z,15.60
2023-03-24T09:18:02.698Z,15.60
2023-03-24T09:20:32.147Z,15.30
2023-03-24T09:23:00.152Z,15.20
2023-03-24T09:25:28.152Z,15.40
2023-03-24T09:27:56.973Z,15.40
2023-03-24T09:30:24.881Z,15.40
2023-03-24T09:32:52.899Z,15.50
2023-03-24T09:35:21.080Z,15.90
2023-03-24T09:37:50.534Z,15.70
2023-03-24T09:40:22.817Z,15.40
2023-03-24T09:42:56.455Z,15.40
2023-03-24T09:45:27.218Z,15.40
2023-03-24T09:47:59.740Z,15.60
2023-03-24T09:50:34.292Z,15.70
2023-03-24T09:53:08.909Z,15.50
2023-03-24T09:55:40.278Z,15.40
2023-03-24T09:58:09.337Z,15.30
2023-03-24T10:00:38.374Z,15.20
2023-03-24T10:03:16.002Z,15.00
2023-03-24T10:05:48.021Z,15.00
2023-03-24T10:08:22.614Z,14.90
2023-03-24T10:11:00.419Z,14.80
2023-03-24T10:13:39.566Z,14.90
2023-03-24T10:16:13.216Z,15.00
2023-03-24T10:18:47.686Z,15.10
2023-03-24T10:21:20.755Z,15.20
2023-03-24T10:23:59.568Z,15.30
2023-03-24T10:26:37.405Z,15.50
2023-03-24T10:29:21.862Z,15.50
2023-03-24T10:31:54.210Z,15.60
2023-03-24T10:34:29.156Z,15.50
2023-03-24T10:36:59.044Z,15.80
2023-03-24T10:39:42.087Z,15.70
2023-03-24T10:42:18.420Z,15.60
2023-03-24T10:44:49.379Z,15.70
2023-03-24T10:47:20.359Z,15.60
2023-03-24T10:49:56.593Z,15.80
2023-03-24T10:52:25.481Z,16.10
2023-03-24T10:54:59.121Z,16.20
2023-03-24T10:57:28.548Z,16.10
2023-03-24T10:59:59.680Z,16.10
2023-03-24T11:02:30.611Z,16.20
2023-03-24T11:05:02.300Z,16.40
2023-03-24T11:07:33.516Z,16.50
2023-03-24T11:10:07.409Z,16.50
2023-03-24T11:12:37.980Z,16.60
2023-03-24T11:15:21.406Z,16.70
2023-03-24T11:17:56.043Z,16.90
2023-03-24T11:20:29.713Z,16.90
2023-03-24T11:23:00.521Z,16.90
2023-03-24T11:25:33.436Z,16.80
2023-03-24T11:28:04.104Z,16.70
2023-03-24T11:30:36.612Z,16.80
2023-03-24T11:33:06.517Z,16.90
2023-03-24T11:35:59.267Z,16.90
2023-03-24T11:38:32.108Z,16.70
2023-03-24T11:41:04.841Z,16.70
2023-03-24T11:43:33.570Z,16.70
2023-03-24T11:46:05.603Z,16.80
2023-03-24T11:48:41.980Z,16.90
2023-03-24T11:51:12.844Z,17.10
2023-03-24T11:53:46.999Z,17.20
2023-03-24T11:56:22.644Z,16.60
2023-03-24T11:58:55.299Z,16.40
2023-03-24T12:01:29.569Z,16.20
2023-03-24T12:04:13.889Z,16.10
2023-03-24T12:06:55.528Z,15.90
2023-03-24T12:09:32.046Z,16.00
2023-03-24T12:12:15.528Z,15.90
2023-03-24T12:14:55.783Z,16.00
2023-03-24T12:17:25.945Z,15.70
2023-03-24T12:20:09.865Z,15.60
2023-03-24T12:22:53.527Z,15.10
2023-03-24T12:25:40.533Z,14.80
2023-03-24T12:28:33.607Z,14.20
2023-03-24T12:31:15.414Z,14.20
2023-03-24T12:33:51.240Z,14.10
2023-03-24T12:36:37.106Z,14.10
2023-03-24T12:39:12.293Z,14.00
2023-03-24T12:42:05.365Z,13.80
2023-03-24T12:45:08.212Z,13.90
2023-03-24T12:47:49.821Z,13.70
2023-03-24T12:50:33.778Z,13.60
2023-03-24T12:53:12.737Z,13.70
2023-03-24T12:55:46.925Z,13.90
2023-03-24T12:58:20.893Z,13.80
2023-03-24T13:00:59.578Z,13.60
2023-03-24T13:03:33.579Z,13.60
2023-03-24T13:06:18.805Z,13.60
2023-03-24T13:08:55.557Z,13.60
2023-03-24T13:11:33.272Z,13.60
2023-03-24T13:14:05.924Z,13.50
2023-03-24T13:16:37.532Z,13.40
2023-03-24T13:19:14.773Z,13.50
2023-03-24T13:21:44.268Z,13.40
2023-03-24T13:24:15.393Z,13.40
2023-03-24T13:26:51.836Z,13.30
2023-03-24T13:29:49.914Z,13.10
2023-03-24T13:32:34.558Z,13.00
2023-03-24T13:35:11.821Z,13.10
2023-03-24T13:37:43.121Z,13.00
2023-03-24T13:40:20.752Z,13.00
2023-03-24T13:42:53.300Z,13.10
2023-03-24T13:45:36.966Z,12.90
2023-03-24T13:48:33.638Z,13.00
2023-03-24T13:51:04.122Z,13.00
2023-03-24T13:53:37.220Z,13.10
2023-03-24T13:56:07.602Z,12.90
2023-03-24T13:59:07.328Z,13.10
2023-03-24T14:01:39.349Z,13.20
2023-03-24T14:04:44.013Z,13.20
2023-03-24T14:07:32.081Z,12.90
2023-03-24T14:10:02.172Z,13.00
2023-03-24T14:12:33.161Z,12.60
2023-03-24T14:15:15.983Z,12.50
2023-03-24T14:17:46.333Z,12.50
2023-03-24T14:20:33.342Z,12.30
2023-03-24T14:23:03.011Z,12.30
2023-03-24T14:25:32.693Z,12.10
2023-03-24T14:28:23.840Z,11.90
2023-03-24T14:31:05.121Z,11.70
2023-03-24T14:33:33.492Z,11.40
2023-03-24T14:36:11.978Z,11.50
2023-03-24T14:38:43.856Z,11.20
2023-03-24T14:41:17.022Z,10.90
2023-03-24T14:43:57.214Z,11.10
2023-03-24T14:46:47.938Z,11.40
2023-03-24T14:49:24.613Z,11.60
2023-03-24T14:52:01.119Z,11.80
2023-03-24T14:54:38.000Z,11.80
2023-03-24T14:57:08.011Z,11.70
2023-03-24T14:59:47.349Z,11.60
2023-03-24T15:02:29.177Z,11.40
2023-03-24T15:05:24.928Z,10.90
2023-03-24T15:08:13.730Z,11.10
2023-03-24T15:10:46.151Z,11.00
2023-03-24T15:13:36.802Z,11.00
2023-03-24T15:16:07.823Z,10.80
2023-03-24T15:18:38.819Z,10.80
2023-03-24T15:21:16.985Z,10.90
2023-03-24T15:23:49.336Z,10.90
2023-03-24T15:26:18.745Z,10.90
2023-03-24T15:28:46.767Z,10.80
2023-03-24T15:31:15.460Z,10.80
2023-03-24T15:33:44.318Z,10.70
2023-03-24T15:36:18.720Z,10.80
2023-03-24T15:38:51.248Z,10.90
2023-03-24T15:41:21.449Z,11.00
2023-03-24T15:43:52.628Z,10.90
2023-03-24T15:46:26.640Z,11.00
2023-03-24T15:48:55.916Z,11.20
2023-03-24T15:51:48.823Z,11.20
2023-03-24T15:54:25.664Z,11.20
2023-03-24T15:57:16.457Z,11.10
2023-03-24T15:59:47.831Z,11.30
2023-03-24T16:02:28.073Z,11.30
2023-03-24T16:05:10.397Z,11.20
2023-03-24T16:07:40.737Z,11.40
2023-03-24T16:10:32.129Z,11.50
2023-03-24T16:13:16.270Z,11.20
2023-03-24T16:15:47.415Z,10.70
2023-03-24T16:18:19.621Z,10.90
2023-03-24T16:20:47.727Z,11.10
2023-03-24T16:23:16.269Z,11.20
2023-03-24T16:25:45.812Z,11.30
2023-03-24T16:28:16.560Z,11.20
2023-03-24T16:30:46.167Z,11.10
2023-03-24T16:33:15.084Z,11.00
2023-03-24T16:35:43.110Z,11.10
2023-03-24T16:38:14.645Z,11.00
2023-03-24T16:40:47.798Z,11.00
2023-03-24T16:43:16.381Z,10.90
2023-03-24T16:45:44.447Z,11.00
2023-03-24T16:48:12.918Z,10.90
2023-03-24T16:50:43.224Z,11.00
2023-03-24T16:53:11.516Z,11.00
2023-03-24T16:55:41.915Z,11.10
2023-03-24T16:58:13.007Z,11.10
2023-03-24T17:00:43.760Z,10.90
2023-03-24T17:03:13.810Z,10.60
2023-03-24T17:05:46.463Z,10.40
2023-03-24T17:08:14.574Z,10.30
2023-03-24T17:10:44.570Z,10.20
2023-03-24T17:13:19.341Z,10.30
2023-03-24T17:15:47.409Z,10.30
2023-03-24T17:18:15.604Z,10.30
2023-03-24T17:20:43.537Z,10.20
2023-03-24T17:23:14.109Z,10.20
2023-03-24T17:25:42.590Z,10.20
2023-03-24T17:28:15.682Z,10.10
2023-03-24T17:30:44.398Z,10.10
2023-03-24T17:33:14.179Z,10.00
2023-03-24T17:35:46.412Z,10.00
2023-03-24T17:38:16.526Z,10.00
2023-03-24T17:40:46.439Z,9.90
2023-03-24T17:43:16.059Z,9.90
2023-03-24T17:45:44.235Z,10.00
2023-03-24T17:48:12.132Z,10.00
2023-03-24T17:50:40.130Z,9.90
2023-03-24T17:53:08.200Z,10.00
2023-03-24T17:55:36.504Z,10.00
2023-03-24T17:58:04.494Z,9.80
2023-03-24T18:00:33.909Z,9.40
2023-03-24T18:03:03.163Z,9.20
2023-03-24T18:05:31.334Z,9.30
2023-03-24T18:07:59.272Z,9.10
2023-03-24T18:10:27.296Z,9.00
2023-03-24T18:12:56.090Z,8.90
2023-03-24T18:15:26.013Z,8.80
2023-03-24T18:17:55.962Z,8.90
2023-03-24T18:20:24.226Z,9.20
2023-03-24T18:22:53.202Z,9.10
2023-03-24T18:25:21.153Z,9.10
2023-03-24T18:27:49.714Z,9.20
2023-03-24T18:30:17.803Z,9.50
2023-03-24T18:32:46.164Z,9.50
2023-03-24T18:35:19.684Z,9.30
2023-03-24T18:37:47.866Z,9.40
2023-03-24T18:40:16.130Z,9.50
2023-03-24T18:42:44.097Z,9.60
2023-03-24T18:45:17.445Z,9.70
2023-03-24T18:47:46.440Z,9.70
2023-03-24T18:50:17.002Z,9.60
2023-03-24T18:52:45.897Z,9.60
2023-03-24T18:55:15.672Z,9.60
2023-03-24T18:57:43.804Z,9.60
2023-03-24T19:00:13.048Z,9.70
2023-03-24T19:02:41.130Z,9.70
2023-03-24T19:05:10.766Z,9.50
2023-03-24T19:07:40.043Z,9.50
2023-03-24T19:10:09.550Z,9.70
2023-03-24T19:12:37.562Z,9.40
2023-03-24T19:15:07.044Z,9.70
2023-03-24T19:17:36.139Z,9.90
2023-03-24T19:20:07.276Z,9.90
2023-03-24T19:22:35.333Z,10.20
2023-03-24T19:25:05.285Z,10.40
2023-03-24T19:27:33.303Z,10.50
2023-03-24T19:30:04.827Z,10.50
2023-03-24T19:32:32.824Z,10.50
2023-03-24T19:35:01.273Z,10.20
2023-03-24T19:37:31.678Z,10.30
2023-03-24T19:39:59.702Z,10.40
2023-03-24T19:42:33.189Z,10.50
2023-03-24T19:45:01.483Z,10.30
2023-03-24T19:47:29.471Z,10.00
2023-03-24T19:49:58.189Z,10.00
2023-03-24T19:52:26.207Z,10.00
2023-03-24T19:54:54.145Z,9.90
2023-03-24T19:57:22.495Z,10.00
2023-03-24T19:59:52.133Z,10.00
2023-03-24T20:02:20.945Z,10.10
2023-03-24T20:04:49.027Z,10.10
2023-03-24T20:07:17.120Z,10.20
2023-03-24T20:09:45.346Z,10.20
2023-03-24T20:12:13.279Z,10.20
2023-03-24T20:14:41.676Z,10.10
2023-03-24T20:17:18.144Z,10.00
2023-03-24T20:19:46.233Z,10.10
2023-03-24T20:22:14.249Z,10.10
2023-03-24T20:24:44.615Z,10.00
2023-03-24T20:27:12.637Z,9.90
2023-03-24T20:29:41.659Z,9.70
2023-03-24T20:32:11.330Z,9.70
2023-03-24T20:34:39.809Z,9.60
2023-03-24T20:37:08.217Z,9.70
2023-03-24T20:39:36.428Z,9.90
2023-03-24T20:42:04.535Z,9.90
2023-03-24T20:44:32.472Z,10.10
2023-03-24T20:47:00.804Z,10.30
2023-03-24T20:49:30.295Z,10.30
2023-03-24T20:51:58.246Z,10.20
2023-03-24T20:54:26.289Z,10.00
2023-03-24T20:56:54.719Z,10.10
2023-03-24T20:59:22.730Z,10.20
2023-03-24T21:01:50.703Z,10.30
2023-03-24T21:04:19.769Z,10.10
2023-03-24T21:06:49.075Z,10.00
2023-03-24T21:09:17.057Z,10.00
2023-03-24T21:11:45.009Z,9.80
2023-03-24T21:14:13.010Z,10.10
2023-03-24T21:16:40.957Z,10.20
2023-03-24T21:19:10.342Z,10.20
2023-03-24T21:21:38.967Z,10.00
2023-03-24T21:24:08.569Z,10.10
2023-03-24T21:26:36.500Z,10.10
2023-03-24T21:29:04.405Z,10.10
2023-03-24T21:31:32.409Z,10.00
2023-03-24T21:34:00.323Z,10.20
2023-03-24T21:36:29.935Z,10.20
2023-03-24T21:38:58.477Z,10.40
2023-03-24T21:41:28.748Z,10.40
2023-03-24T21:44:00.433Z,10.50
2023-03-24T21:46:28.538Z,10.10
2023-03-24T21:48:59.056Z,10.20
2023-03-24T21:51:30.523Z,10.20
2023-03-24T21:54:03.382Z,10.40
2023-03-24T21:56:34.939Z,10.40
2023-03-24T21:59:03.093Z,10.00
2023-03-24T22:01:33.876Z,9.90
2023-03-24T22:04:03.400Z,10.00
2023-03-24T22:06:37.459Z,10.20
2023-03-24T22:09:08.265Z,10.10
2023-03-24T22:11:42.473Z,10.20
2023-03-24T22:14:10.667Z,10.30
2023-03-24T22:16:38.615Z,10.30
2023-03-24T22:19:06.576Z,10.40
2023-03-24T22:21:34.490Z,9.90
2023-03-24T22:24:02.394Z,9.60
2023-03-24T22:26:30.984Z,9.40
2023-03-24T22:29:00.465Z,9.20
2023-03-24T22:31:28.433Z,9.10
2023-03-24T22:33:56.406Z,9.10
2023-03-24T22:36:24.296Z,9.00
2023-03-24T22:38:52.237Z,9.10
2023-03-24T22:41:20.389Z,9.00
2023-03-24T22:43:49.158Z,9.10
2023-03-24T22:46:18.506Z,9.20
2023-03-24T22:48:46.456Z,9.20
2023-03-24T22:51:19.018Z,9.30
2023-03-24T22:53:47.378Z,9.30
2023-03-24T22:56:16.486Z,9.20
2023-03-24T22:58:44.444Z,9.20
2023-03-24T23:01:12.431Z,9.10
2023-03-24T23:03:41.694Z,9.20
2023-03-24T23:06:12.049Z,9.30
2023-03-24T23:08:40.069Z,9.40
2023-03-24T23:11:09.410Z,9.10
2023-03-24T23:13:38.694Z,9.20
2023-03-24T23:16:08.010Z,9.30
2023-03-24T23:18:35.966Z,9.40
2023-03-24T23:21:07.943Z,9.40
2023-03-24T23:23:36.883Z,9.40
2023-03-24T23:26:05.603Z,9.20
2023-03-24T23:28:34.472Z,9.10
2023-03-24T23:31:02.486Z,9.10
2023-03-24T23:33:30.577Z,9.20
2023-03-24T23:35:59.889Z,9.00
2023-03-24T23:38:29.155Z,9.10
2023-03-24T23:40:57.072Z,9.00
2023-03-24T23:43:24.972Z,9.00
2023-03-24T23:45:55.804Z,8.80
2023-03-24T23:48:23.968Z,8.60
2023-03-24T23:50:56.745Z,8.50
2023-03-24T23:53:24.849Z,8.50
2023-03-24T23:55:57.198Z,8.40
2023-03-24T23:58:25.597Z,8.30
